CheckWX is a tool to help pilots better visualize weather data.  It is not intended as a substitute for an official pre-flight weather briefing.

02:29:05 UTC

KDFI METAR
Defiance Memorial Airport
Defiance, Ohio, USA
Current

28 mins ago

KDFI 180201Z AUTO 01009KT 4SM BR BKN007 BKN011 OVC017 M04/M06 A2984 RMK AO2 I1000 T10391056
Observed
Feb-18 @ 02:01 UTC
Wind
  • 010° at 9 KTS
Visibility
4 SM
Flight Rules
IFR
Conditions
Mist
Cloud Levels
  • Broken at 700' AGL
  • Broken at 1,100' AGL
  • Overcast at 1,700' AGL
Temperature
-4°C / 25°F
Dewpoint
-6°C / 21°F
Humidity
86%
Altimeter
29.84" Hg
Pressure
1010.52 hPa
Previous

36 mins ago

KDFI 180153Z AUTO 36008KT 4SM BR SCT007 OVC017 M04/M06 A2984 RMK AO2 SNE27 SLP114 P0000 I1000 T10391056
Observed
Feb-18 @ 01:53 UTC
Wind
  • 360° at 8 KTS
Visibility
4 SM
Flight Rules
MVFR
Conditions
Mist
Cloud Levels
  • Scattered at 700' AGL
  • Overcast at 1,700' AGL
Temperature
-4°C / 25°F
Dewpoint
-6°C / 21°F
Humidity
86%
Altimeter
29.84" Hg
Pressure
1011.4 hPa
Current Rain
0.01"
Previous

45 mins ago

KDFI 180144Z AUTO 02007KT 4SM BR SCT007 BKN014 OVC019 M04/M06 A2984 RMK AO2 SNE27 P0000 T10391056
Observed
Feb-18 @ 01:44 UTC
Wind
  • 020° at 7 KTS
Visibility
4 SM
Flight Rules
MVFR
Conditions
Mist
Cloud Levels
  • Scattered at 700' AGL
  • Broken at 1,400' AGL
  • Overcast at 1,900' AGL
Temperature
-4°C / 25°F
Dewpoint
-6°C / 21°F
Humidity
86%
Altimeter
29.84" Hg
Pressure
1010.52 hPa
Current Rain
0.01"